Time;durP1;ratioP1;P1;durP2;ratioP2;P2;SDS_P1;SDS_P2;PMS_P1;PMS_P2;Temp;Humidity;BMP_temperature;BMP_pressure;BME280_temperature;BME280_humidity;BME280_pressure;Samples;Min_cycle;Max_cycle;Signal;HPM_P1;HPM_P2
2022/09/02 00:01:18;;;;;;;9.65;6.10;;;;;;;22.89;nan;-24452.72;5012167;28;20233;-58
2022/09/02 00:03:44;;;;;;;11.68;5.95;;;;;;;22.62;nan;-24445.13;5011788;28;20548;-59
2022/09/02 00:06:10;;;;;;;11.57;5.63;;;;;;;22.68;nan;-24446.78;5004685;28;20173;-58
2022/09/02 00:08:36;;;;;;;10.82;6.53;;;;;;;22.60;nan;-24444.72;5003028;28;20192;-58
2022/09/02 00:11:04;;;;;;;9.73;5.63;;;;;;;22.54;nan;-24443.06;5006151;28;20278;-58
2022/09/02 00:13:31;;;;;;;10.57;6.20;;;;;;;22.85;nan;-24451.50;5001353;28;20195;-58
2022/09/02 00:15:57;;;;;;;12.98;6.15;;;;;;;22.97;nan;-24454.66;4998755;28;20271;-59
2022/09/02 00:18:23;;;;;;;10.38;6.55;;;;;;;22.89;nan;-24452.59;5002160;28;20732;-58
2022/09/02 00:20:49;;;;;;;10.23;6.43;;;;;;;22.62;nan;-24445.13;5003004;28;20243;-59
2022/09/02 00:23:15;;;;;;;11.15;7.15;;;;;;;22.60;nan;-24444.56;5001359;28;20179;-58
2022/09/02 00:25:43;;;;;;;12.27;7.10;;;;;;;22.88;nan;-24452.47;5000012;28;20601;-59
2022/09/02 00:28:10;;;;;;;12.20;6.75;;;;;;;22.86;nan;-24451.91;5011724;28;20183;-58
2022/09/02 00:30:36;;;;;;;12.45;7.22;;;;;;;22.93;nan;-24453.56;5011727;28;20235;-58
2022/09/02 00:33:02;;;;;;;12.18;7.53;;;;;;;22.70;nan;-24447.50;5002755;28;20732;-58
2022/09/02 00:35:28;;;;;;;12.50;7.03;;;;;;;23.17;nan;-24460.19;5002599;28;20184;-58
2022/09/02 00:37:53;;;;;;;11.80;7.18;;;;;;;23.16;nan;-24459.94;5007809;28;20250;-58
2022/09/02 00:40:19;;;;;;;10.90;6.63;;;;;;;23.12;nan;-24458.81;5003847;28;20234;-58
2022/09/02 00:42:45;;;;;;;10.45;6.40;;;;;;;23.19;nan;-24460.88;5008779;28;20626;-59
2022/09/02 00:45:11;;;;;;;11.32;6.55;;;;;;;23.23;nan;-24461.84;5011114;28;20214;-58
2022/09/02 00:47:37;;;;;;;11.00;6.55;;;;;;;22.92;nan;-24453.44;5005239;28;20199;-58
2022/09/02 00:50:08;;;;;;;12.75;6.45;;;;;;;23.22;nan;-24461.56;5006450;28;20655;-59
2022/09/02 00:52:38;;;;;;;8.93;5.78;;;;;;;23.35;nan;-24465.19;4996522;28;20679;-59
2022/09/02 00:55:10;;;;;;;8.90;5.55;;;;;;;23.20;nan;-24461.03;5010891;28;20215;-58
2022/09/02 00:57:43;;;;;;;12.68;6.53;;;;;;;23.29;nan;-24463.50;4999790;28;20243;-57
2022/09/02 01:00:17;;;;;;;10.20;5.35;;;;;;;23.48;nan;-24468.78;5004731;28;20214;-59
2022/09/02 01:02:47;;;;;;;11.57;6.50;;;;;;;23.12;nan;-24458.81;4998937;28;20292;-58
2022/09/02 01:05:16;;;;;;;11.15;5.85;;;;;;;23.00;nan;-24455.50;4998130;28;20192;-59
2022/09/02 01:07:43;;;;;;;9.80;5.70;;;;;;;23.19;nan;-24460.88;5011627;28;20270;-59
2022/09/02 01:10:21;;;;;;;10.40;5.93;;;;;;;23.19;nan;-24460.75;5002688;28;20240;-59
2022/09/02 01:12:48;;;;;;;9.73;5.70;;;;;;;23.20;nan;-24461.16;5006189;28;20172;-59
2022/09/02 01:15:14;;;;;;;9.75;6.20;;;;;;;22.95;nan;-24454.13;5010420;28;20176;-59
2022/09/02 01:17:45;;;;;;;9.15;5.78;;;;;;;22.86;nan;-24451.78;5014754;28;20188;-59
2022/09/02 01:20:15;;;;;;;8.70;5.68;;;;;;;23.21;nan;-24461.31;5002010;28;20232;-59
2022/09/02 01:22:41;;;;;;;9.10;5.30;;;;;;;23.17;nan;-24460.34;5011506;28;20179;-59
2022/09/02 01:25:11;;;;;;;11.88;5.82;;;;;;;23.30;nan;-24463.78;5006828;28;20211;-60
2022/09/02 01:27:37;;;;;;;10.45;6.43;;;;;;;23.26;nan;-24462.69;5005899;28;20559;-60
2022/09/02 01:30:05;;;;;;;12.85;6.63;;;;;;;22.97;nan;-24454.81;5008774;28;20188;-60
2022/09/02 01:32:31;;;;;;;9.45;5.75;;;;;;;23.24;nan;-24462.28;5004179;28;20192;-59
2022/09/02 01:34:56;;;;;;;10.40;5.65;;;;;;;23.15;nan;-24459.66;5001923;28;20192;-60
2022/09/02 01:37:22;;;;;;;9.73;5.53;;;;;;;22.87;nan;-24452.03;5010960;28;20187;-60
2022/09/02 01:39:48;;;;;;;11.10;5.15;;;;;;;22.89;nan;-24452.59;5000698;28;20209;-59
2022/09/02 01:42:14;;;;;;;9.25;5.43;;;;;;;23.26;nan;-24462.69;5012623;28;20266;-59
2022/09/02 01:44:42;;;;;;;12.50;6.05;;;;;;;23.21;nan;-24461.44;5004852;28;20192;-59
2022/09/02 01:47:20;;;;;;;11.88;5.47;;;;;;;22.97;nan;-24454.66;5005667;28;20173;-60
2022/09/02 01:49:47;;;;;;;11.23;7.05;;;;;;;22.75;nan;-24448.72;5014740;28;20215;-60
2022/09/02 01:52:12;;;;;;;8.40;4.88;;;;;;;23.14;nan;-24459.50;5008467;28;20267;-59
2022/09/02 01:54:38;;;;;;;9.48;5.72;;;;;;;23.00;nan;-24455.50;5014966;28;20679;-59
2022/09/02 01:57:04;;;;;;;11.25;5.57;;;;;;;22.67;nan;-24446.66;5001609;28;20184;-59
2022/09/02 01:59:29;;;;;;;9.90;4.80;;;;;;;22.57;nan;-24443.88;5004604;28;20204;-60
2022/09/02 02:01:55;;;;;;;10.85;5.28;;;;;;;22.75;nan;-24448.72;5006816;28;20184;-58
2022/09/02 02:04:23;;;;;;;9.55;5.45;;;;;;;22.98;nan;-24454.94;5010055;28;20187;-58
2022/09/02 02:06:50;;;;;;;9.57;5.13;;;;;;;23.03;nan;-24456.34;5007033;28;20184;-58
2022/09/02 02:09:16;;;;;;;10.40;5.30;;;;;;;22.99;nan;-24455.22;5004088;28;20202;-59
2022/09/02 02:11:42;;;;;;;10.65;5.32;;;;;;;22.51;nan;-24442.22;5008327;28;20647;-59
2022/09/02 02:14:08;;;;;;;7.47;4.80;;;;;;;22.60;nan;-24444.72;5012230;28;20586;-59
2022/09/02 02:16:34;;;;;;;7.50;5.00;;;;;;;23.00;nan;-24455.63;4998484;28;20618;-59
2022/09/02 02:18:59;;;;;;;9.15;5.00;;;;;;;23.02;nan;-24456.06;5001369;28;20260;-59
2022/09/02 02:21:25;;;;;;;9.73;5.55;;;;;;;23.05;nan;-24456.88;5014644;28;20230;-58
2022/09/02 02:23:50;;;;;;;10.27;5.43;;;;;;;22.94;nan;-24453.97;5012812;28;20625;-58
2022/09/02 02:26:16;;;;;;;11.38;5.45;;;;;;;22.76;nan;-24449.16;5006681;28;20250;-59
2022/09/02 02:28:41;;;;;;;11.30;6.55;;;;;;;22.93;nan;-24453.56;5004438;28;20600;-59
2022/09/02 02:31:08;;;;;;;11.55;6.13;;;;;;;22.98;nan;-24454.94;5000666;28;20192;-59
2022/09/02 02:33:34;;;;;;;15.52;5.18;;;;;;;22.68;nan;-24446.78;4999275;28;20560;-59
2022/09/02 02:36:03;;;;;;;10.13;5.07;;;;;;;22.92;nan;-24453.28;5001607;28;20203;-59
2022/09/02 02:38:29;;;;;;;8.07;5.15;;;;;;;22.95;nan;-24454.25;5007959;28;20187;-59
2022/09/02 02:40:56;;;;;;;10.70;5.28;;;;;;;22.91;nan;-24453.16;5013597;28;20200;-58
2022/09/02 02:43:23;;;;;;;10.48;5.38;;;;;;;22.70;nan;-24447.34;5004357;28;20180;-59
2022/09/02 02:45:49;;;;;;;10.32;5.65;;;;;;;22.87;nan;-24452.19;5003276;28;20282;-58
2022/09/02 02:48:15;;;;;;;9.77;5.32;;;;;;;22.92;nan;-24453.44;5000891;28;20354;-60
2022/09/02 02:50:41;;;;;;;10.30;4.70;;;;;;;22.77;nan;-24449.28;4998051;28;20564;-59
2022/09/02 02:53:07;;;;;;;8.32;5.03;;;;;;;22.77;nan;-24449.28;5000241;28;20177;-59
2022/09/02 02:55:33;;;;;;;11.48;5.18;;;;;;;22.60;nan;-24444.72;5003439;28;20180;-58
2022/09/02 02:57:58;;;;;;;8.80;5.05;;;;;;;22.57;nan;-24443.75;5005808;28;20551;-59
2022/09/02 03:00:27;;;;;;;10.75;5.07;;;;;;;22.76;nan;-24449.00;5004325;28;20239;-58
2022/09/02 03:03:11;;;;;;;9.70;5.80;;;;;;;22.84;nan;-24451.22;5005572;28;20600;-58
2022/09/02 03:05:37;;;;;;;8.27;5.03;;;;;;;22.75;nan;-24448.88;5002493;28;20168;-59
2022/09/02 03:08:05;;;;;;;11.20;5.70;;;;;;;22.33;nan;-24437.25;5000432;28;20188;-59
2022/09/02 03:10:32;;;;;;;8.98;4.82;;;;;;;22.68;nan;-24446.78;5003296;28;20206;-58
2022/09/02 03:12:58;;;;;;;8.68;5.20;;;;;;;22.41;nan;-24439.59;4999108;28;20262;-59
2022/09/02 03:15:25;;;;;;;7.75;4.38;;;;;;;22.63;nan;-24445.41;5008548;28;20184;-59
2022/09/02 03:17:52;;;;;;;9.32;4.68;;;;;;;22.65;nan;-24446.09;5013232;28;20677;-60
2022/09/02 03:20:18;;;;;;;8.25;4.88;;;;;;;22.64;nan;-24445.81;5009350;28;20737;-59
2022/09/02 03:22:46;;;;;;;7.70;4.95;;;;;;;22.65;nan;-24445.97;4998320;28;20184;-59
2022/09/02 03:25:14;;;;;;;7.13;4.75;;;;;;;22.37;nan;-24438.50;4998074;28;20181;-59
2022/09/02 03:27:40;;;;;;;9.00;5.30;;;;;;;22.78;nan;-24449.69;4996415;28;20192;-58
2022/09/02 03:30:08;;;;;;;10.15;5.18;;;;;;;22.61;nan;-24444.84;4998543;28;20172;-58
2022/09/02 03:32:34;;;;;;;11.38;5.13;;;;;;;22.66;nan;-24446.25;4998009;28;20184;-58
2022/09/02 03:35:01;;;;;;;9.35;5.00;;;;;;;22.70;nan;-24447.50;4997559;28;20199;-58
2022/09/02 03:37:27;;;;;;;8.10;4.45;;;;;;;22.56;nan;-24443.59;4996683;28;20180;-59
2022/09/02 03:39:52;;;;;;;8.75;4.72;;;;;;;22.56;nan;-24443.59;4997148;28;20917;-59
2022/09/02 03:42:18;;;;;;;7.32;4.85;;;;;;;22.87;nan;-24452.03;4997404;28;20219;-58
2022/09/02 03:44:43;;;;;;;11.40;4.78;;;;;;;22.83;nan;-24450.94;4998752;28;20184;-59
2022/09/02 03:47:09;;;;;;;7.57;4.78;;;;;;;22.38;nan;-24438.63;4997351;28;20235;-59
2022/09/02 03:49:35;;;;;;;7.15;4.95;;;;;;;22.34;nan;-24437.66;4999209;28;20542;-58
2022/09/02 03:52:01;;;;;;;9.80;5.38;;;;;;;22.74;nan;-24448.44;4997643;28;20235;-57
2022/09/02 03:54:26;;;;;;;7.57;4.53;;;;;;;22.62;nan;-24445.25;4997096;28;20211;-58
2022/09/02 03:56:52;;;;;;;8.32;5.45;;;;;;;22.68;nan;-24446.94;4998549;28;20286;-59
2022/09/02 03:59:18;;;;;;;8.23;4.68;;;;;;;22.41;nan;-24439.59;4996252;28;20286;-59
2022/09/02 04:01:44;;;;;;;10.27;5.43;;;;;;;22.39;nan;-24438.91;4998595;28;20619;-58
2022/09/02 04:04:09;;;;;;;11.07;5.53;;;;;;;22.48;nan;-24441.41;4995127;28;20295;-57
2022/09/02 04:06:36;;;;;;;8.48;4.80;;;;;;;22.64;nan;-24445.81;4998065;28;20176;-58
2022/09/02 04:09:02;;;;;;;9.02;4.75;;;;;;;22.52;nan;-24442.50;4997769;28;20188;-59
2022/09/02 04:11:28;;;;;;;8.25;5.25;;;;;;;22.72;nan;-24448.03;5002986;28;20254;-59
2022/09/02 04:13:53;;;;;;;9.95;4.70;;;;;;;22.43;nan;-24440.00;5003214;28;20651;-58
2022/09/02 04:16:26;;;;;;;9.23;4.97;;;;;;;22.50;nan;-24441.94;5004435;28;20180;-59
2022/09/02 04:18:51;;;;;;;7.70;4.63;;;;;;;22.64;nan;-24445.81;5003524;28;20187;-59
2022/09/02 04:21:18;;;;;;;8.73;4.80;;;;;;;22.71;nan;-24447.75;5011739;28;20725;-59
2022/09/02 04:23:44;;;;;;;8.02;5.38;;;;;;;22.63;nan;-24445.53;5011627;28;20233;-58
2022/09/02 04:26:13;;;;;;;10.05;5.22;;;;;;;22.47;nan;-24441.13;5011468;28;20588;-59
2022/09/02 04:28:39;;;;;;;10.13;5.13;;;;;;;22.56;nan;-24443.47;5011343;28;20176;-59
2022/09/02 04:31:07;;;;;;;7.75;4.55;;;;;;;22.77;nan;-24449.28;5011678;28;20607;-58
2022/09/02 04:33:33;;;;;;;7.68;4.90;;;;;;;22.46;nan;-24440.84;5011656;28;20655;-57
2022/09/02 04:35:59;;;;;;;7.88;5.25;;;;;;;22.72;nan;-24447.91;5010953;28;20172;-58
2022/09/02 04:38:24;;;;;;;9.35;5.28;;;;;;;22.41;nan;-24439.59;5006416;28;20176;-59
2022/09/02 04:40:50;;;;;;;8.50;4.88;;;;;;;22.40;nan;-24439.19;5008170;28;20299;-58
2022/09/02 04:43:15;;;;;;;14.27;5.38;;;;;;;22.71;nan;-24447.63;5009148;28;20183;-59
2022/09/02 04:45:43;;;;;;;9.77;4.93;;;;;;;22.48;nan;-24441.41;5000170;28;20255;-59
2022/09/02 04:48:09;;;;;;;10.25;4.68;;;;;;;22.43;nan;-24440.00;5009206;28;20555;-57
2022/09/02 04:50:36;;;;;;;8.85;5.32;;;;;;;22.54;nan;-24443.06;5001597;28;20187;-57
2022/09/02 04:53:03;;;;;;;10.70;5.20;;;;;;;22.79;nan;-24449.84;5004644;28;20172;-59
2022/09/02 04:55:28;;;;;;;10.63;5.22;;;;;;;22.94;nan;-24453.97;5010728;28;20210;-59
2022/09/02 04:57:53;;;;;;;9.48;4.78;;;;;;;23.10;nan;-24458.41;5004994;28;20195;-58
2022/09/02 05:00:19;;;;;;;8.95;5.55;;;;;;;22.94;nan;-24453.84;5011174;28;20566;-60
2022/09/02 05:02:44;;;;;;;8.38;4.93;;;;;;;23.04;nan;-24456.75;5011338;28;20172;-59
2022/09/02 05:05:10;;;;;;;10.73;5.07;;;;;;;23.21;nan;-24461.31;5011238;28;20191;-59
2022/09/02 05:07:37;;;;;;;9.18;5.38;;;;;;;22.89;nan;-24452.59;5005542;28;20192;-58
2022/09/02 05:10:03;;;;;;;9.95;5.18;;;;;;;23.00;nan;-24455.63;4947694;28;20260;-59
2022/09/02 05:12:31;;;;;;;10.52;5.15;;;;;;;23.08;nan;-24457.72;4952185;29;20189;-58
2022/09/02 05:14:59;;;;;;;7.55;5.53;;;;;;;22.74;nan;-24448.59;4951922;28;20190;-58
2022/09/02 05:17:26;;;;;;;7.85;4.93;;;;;;;22.62;nan;-24445.25;4949601;28;20186;-58
2022/09/02 05:19:51;;;;;;;8.32;5.57;;;;;;;22.70;nan;-24447.50;4952736;28;20442;-57
2022/09/02 05:22:17;;;;;;;8.98;5.25;;;;;;;22.99;nan;-24455.38;4952994;29;20174;-58
2022/09/02 05:24:43;;;;;;;10.63;5.97;;;;;;;23.06;nan;-24457.16;4948823;28;20197;-58
2022/09/02 05:27:08;;;;;;;8.27;5.22;;;;;;;23.18;nan;-24460.47;4949803;28;20186;-58
2022/09/02 05:29:35;;;;;;;9.65;5.93;;;;;;;23.07;nan;-24457.44;4951420;29;20194;-57
2022/09/02 05:32:01;;;;;;;9.30;5.00;;;;;;;23.29;nan;-24463.50;4952788;29;20181;-58
2022/09/02 05:34:26;;;;;;;12.38;5.88;;;;;;;23.30;nan;-24463.94;4952801;28;20517;-59
2022/09/02 05:36:52;;;;;;;7.97;5.13;;;;;;;23.30;nan;-24463.94;4952791;28;20355;-58
2022/09/02 05:39:18;;;;;;;10.55;5.82;;;;;;;23.47;nan;-24468.34;4952134;28;20205;-60
2022/09/02 05:41:43;;;;;;;9.88;5.85;;;;;;;23.30;nan;-24463.78;4951632;29;20198;-58
2022/09/02 05:44:09;;;;;;;9.88;5.72;;;;;;;23.17;nan;-24460.19;4952444;29;20277;-60
2022/09/02 05:46:35;;;;;;;11.80;6.00;;;;;;;23.58;nan;-24471.38;4949649;28;20606;-59
2022/09/02 05:49:16;;;;;;;13.80;6.53;;;;;;;23.39;nan;-24466.13;4946621;28;20189;-60
2022/09/02 05:51:48;;;;;;;10.23;6.25;;;;;;;23.72;nan;-24475.38;4954359;28;20166;-60
2022/09/02 05:54:17;;;;;;;10.90;6.70;;;;;;;23.33;nan;-24464.75;4954917;29;20240;-60
2022/09/02 05:56:45;;;;;;;9.00;5.85;;;;;;;23.49;nan;-24469.03;4953402;28;20240;-60
2022/09/02 05:59:11;;;;;;;10.82;6.45;;;;;;;23.73;nan;-24475.66;4956211;28;20194;-59
2022/09/02 06:01:36;;;;;;;10.57;6.47;;;;;;;23.81;nan;-24477.75;4955235;28;20717;-59
2022/09/02 06:04:04;;;;;;;10.00;6.13;;;;;;;23.80;nan;-24477.31;4955963;28;20186;-60
2022/09/02 06:06:30;;;;;;;11.00;6.13;;;;;;;23.60;nan;-24472.06;4954342;28;20618;-59
2022/09/02 06:08:57;;;;;;;10.32;6.50;;;;;;;23.91;nan;-24480.34;4954864;28;20178;-59
2022/09/02 06:11:24;;;;;;;10.52;6.88;;;;;;;24.14;nan;-24486.69;4954956;28;20240;-58
2022/09/02 06:13:51;;;;;;;11.82;6.93;;;;;;;24.16;nan;-24487.25;4956304;28;20182;-58
2022/09/02 06:16:20;;;;;;;10.10;6.68;;;;;;;24.18;nan;-24487.94;4955933;28;20190;-59
2022/09/02 06:18:46;;;;;;;11.18;6.43;;;;;;;24.05;nan;-24484.34;4955871;28;20575;-60
2022/09/02 06:21:13;;;;;;;10.50;6.10;;;;;;;23.91;nan;-24480.34;4956037;28;20645;-59
2022/09/02 06:23:39;;;;;;;10.93;6.63;;;;;;;24.23;nan;-24489.19;4955643;28;20186;-59
2022/09/02 06:26:07;;;;;;;10.05;6.45;;;;;;;23.92;nan;-24480.63;4954793;29;20236;-59
2022/09/02 06:28:34;;;;;;;12.75;6.63;;;;;;;24.25;nan;-24489.75;4954653;28;20269;-60
2022/09/02 06:31:05;;;;;;;10.73;5.95;;;;;;;24.18;nan;-24487.81;4955036;28;20201;-59
2022/09/02 06:33:31;;;;;;;10.00;6.20;;;;;;;24.11;nan;-24486.00;4954685;28;20232;-60
2022/09/02 06:35:56;;;;;;;10.80;6.07;;;;;;;24.38;nan;-24493.19;4954995;28;20182;-59
2022/09/02 06:38:22;;;;;;;11.73;6.68;;;;;;;24.25;nan;-24489.75;4955091;29;20324;-60
2022/09/02 06:40:50;;;;;;;13.52;6.40;;;;;;;24.21;nan;-24488.63;4953856;28;20673;-60
2022/09/02 06:43:16;;;;;;;11.38;6.10;;;;;;;24.07;nan;-24484.78;4955323;28;20182;-59
2022/09/02 06:45:42;;;;;;;11.98;6.50;;;;;;;24.06;nan;-24484.50;4955354;28;20188;-58
2022/09/02 06:48:09;;;;;;;10.95;5.78;;;;;;;23.96;nan;-24481.72;4953775;28;20669;-60
2022/09/02 06:50:42;;;;;;;10.32;6.15;;;;;;;24.23;nan;-24489.19;4951426;29;20210;-59
2022/09/02 06:53:09;;;;;;;9.32;5.93;;;;;;;24.25;nan;-24489.75;4955474;28;20544;-58
2022/09/02 06:55:35;;;;;;;12.43;5.63;;;;;;;24.09;nan;-24485.31;4955150;28;20677;-60
2022/09/02 06:58:02;;;;;;;10.00;5.65;;;;;;;24.45;nan;-24495.13;4955302;28;20194;-60
2022/09/02 07:00:27;;;;;;;12.85;6.00;;;;;;;24.51;nan;-24496.91;4955046;29;20209;-59
2022/09/02 07:05:39;;;;;;;10.50;5.40;;;;;;;25.08;nan;-24512.34;4934716;28;20197;-58
2022/09/02 07:08:04;;;;;;;8.40;5.85;;;;;;;25.16;nan;-24514.53;4954229;29;20190;-59
2022/09/02 07:10:30;;;;;;;10.23;5.22;;;;;;;25.67;nan;-24528.31;4954499;28;20189;-57
2022/09/02 07:12:56;;;;;;;10.38;5.97;;;;;;;25.79;nan;-24531.75;4954989;28;20248;-60
2022/09/02 07:15:22;;;;;;;9.02;5.55;;;;;;;25.67;nan;-24528.44;4955501;28;20172;-59
2022/09/02 07:17:48;;;;;;;7.20;4.80;;;;;;;26.13;nan;-24540.94;4954197;28;20269;-58
2022/09/02 07:20:14;;;;;;;8.15;5.13;;;;;;;26.03;nan;-24538.06;4953761;28;20772;-60
2022/09/02 07:22:39;;;;;;;7.63;5.07;;;;;;;26.21;nan;-24543.00;4954422;29;20282;-59
2022/09/02 07:25:06;;;;;;;9.10;5.15;;;;;;;26.17;nan;-24541.91;4954858;28;20189;-59
2022/09/02 07:27:33;;;;;;;7.63;5.25;;;;;;;26.12;nan;-24540.53;4954765;28;20273;-59
2022/09/02 07:29:58;;;;;;;7.00;4.85;;;;;;;26.04;nan;-24538.34;4954782;28;20193;-60
2022/09/02 07:32:24;;;;;;;7.25;4.88;;;;;;;25.72;nan;-24529.69;4954023;28;20190;-58
2022/09/02 07:34:49;;;;;;;8.43;5.15;;;;;;;25.59;nan;-24526.09;4953830;28;20182;-59
2022/09/02 07:37:15;;;;;;;9.43;6.03;;;;;;;25.30;nan;-24518.41;4953916;28;20269;-59
2022/09/02 07:39:42;;;;;;;8.52;5.82;;;;;;;25.47;nan;-24522.94;4953675;28;20680;-60
2022/09/02 07:42:07;;;;;;;7.97;5.25;;;;;;;25.08;nan;-24512.47;4954051;28;20186;-58
2022/09/02 07:44:33;;;;;;;8.07;5.35;;;;;;;25.38;nan;-24520.47;4953792;29;20185;-59
2022/09/02 07:46:59;;;;;;;7.80;5.15;;;;;;;25.13;nan;-24513.72;4953585;28;20570;-59
2022/09/02 07:49:25;;;;;;;9.02;5.40;;;;;;;25.41;nan;-24521.41;4954104;29;20174;-58
2022/09/02 07:51:51;;;;;;;9.50;5.68;;;;;;;25.88;nan;-24534.06;4953109;28;20218;-58
2022/09/02 07:54:19;;;;;;;9.52;5.97;;;;;;;25.75;nan;-24530.66;4953397;28;20178;-59
2022/09/02 07:56:45;;;;;;;11.63;6.35;;;;;;;25.90;nan;-24534.75;4953094;28;20193;-60
2022/09/02 07:59:10;;;;;;;10.57;5.50;;;;;;;26.25;nan;-24544.13;4954260;29;20194;-59
2022/09/02 08:01:37;;;;;;;10.00;5.68;;;;;;;26.36;nan;-24547.28;4954090;28;20273;-58
2022/09/02 08:04:03;;;;;;;9.73;5.50;;;;;;;26.22;nan;-24543.41;4953904;28;20189;-58
2022/09/02 08:06:30;;;;;;;10.40;5.85;;;;;;;26.31;nan;-24545.75;4954101;28;20232;-61
2022/09/02 08:08:56;;;;;;;11.02;6.00;;;;;;;25.92;nan;-24535.19;4954229;28;20241;-59
2022/09/02 08:11:22;;;;;;;8.70;5.60;;;;;;;25.73;nan;-24530.09;4953688;29;20552;-59
2022/09/02 08:13:48;;;;;;;7.82;5.50;;;;;;;25.62;nan;-24526.94;4952615;28;20194;-59
2022/09/02 08:16:14;;;;;;;8.35;6.20;;;;;;;25.23;nan;-24516.47;4954149;28;20264;-60
2022/09/02 08:18:40;;;;;;;11.32;6.45;;;;;;;25.34;nan;-24519.50;4953532;28;20194;-58
2022/09/02 08:21:06;;;;;;;10.48;6.18;;;;;;;25.31;nan;-24518.53;4953853;28;20198;-58
2022/09/02 08:23:31;;;;;;;10.75;6.03;;;;;;;25.30;nan;-24518.41;4953594;28;20182;-59
2022/09/02 08:26:01;;;;;;;10.52;6.20;;;;;;;25.81;nan;-24532.16;4952307;29;20185;-58
2022/09/02 08:28:26;;;;;;;12.18;7.07;;;;;;;24.86;nan;-24506.28;4953945;28;20776;-57
2022/09/02 08:30:53;;;;;;;10.40;7.05;;;;;;;25.82;nan;-24532.44;4953843;28;20166;-59
2022/09/02 08:33:19;;;;;;;10.40;7.00;;;;;;;25.53;nan;-24524.59;4952996;29;20181;-59
2022/09/02 08:35:45;;;;;;;13.30;6.63;;;;;;;25.76;nan;-24530.78;4952454;28;20178;-58
2022/09/02 08:38:10;;;;;;;12.63;7.03;;;;;;;25.68;nan;-24528.56;4952481;29;20284;-59
2022/09/02 08:40:39;;;;;;;11.60;6.75;;;;;;;25.50;nan;-24523.75;4953186;28;20309;-57
2022/09/02 08:43:28;;;;;;;12.15;7.30;;;;;;;25.74;nan;-24530.38;4952706;28;20776;-58
2022/09/02 08:45:58;;;;;;;11.57;6.95;;;;;;;25.69;nan;-24528.84;4951354;29;20238;-59
2022/09/02 08:48:37;;;;;;;10.20;6.85;;;;;;;25.89;nan;-24534.34;4953630;28;20205;-59
2022/09/02 08:51:09;;;;;;;9.63;6.53;;;;;;;26.50;nan;-24550.97;4953508;28;20182;-59
2022/09/02 08:53:45;;;;;;;16.33;7.85;;;;;;;26.40;nan;-24548.22;4934779;29;20175;-60
2022/09/02 08:56:15;;;;;;;12.32;7.05;;;;;;;26.57;nan;-24552.75;4948700;29;20201;-59
2022/09/02 08:58:45;;;;;;;12.68;7.55;;;;;;;26.46;nan;-24549.75;4953493;29;20660;-60
2022/09/02 09:01:23;;;;;;;11.80;7.53;;;;;;;26.52;nan;-24551.38;4952998;29;20206;-60
2022/09/02 09:04:26;;;;;;;11.02;7.05;;;;;;;26.18;nan;-24542.31;4953132;29;20696;-60
2022/09/02 09:07:03;;;;;;;12.45;7.38;;;;;;;26.63;nan;-24554.41;4953048;29;20276;-59
2022/09/02 09:09:39;;;;;;;12.40;7.30;;;;;;;26.13;nan;-24540.94;4952066;29;20182;-61
2022/09/02 09:12:04;;;;;;;13.13;7.57;;;;;;;26.19;nan;-24542.59;4952428;28;20248;-60
2022/09/02 09:14:54;;;;;;;13.55;7.40;;;;;;;25.93;nan;-24535.59;4952639;28;20277;-59
2022/09/02 09:17:43;;;;;;;11.07;7.35;;;;;;;25.85;nan;-24533.38;4946333;29;20197;-60
2022/09/02 09:20:21;;;;;;;14.13;7.28;;;;;;;25.66;nan;-24528.03;4951300;28;20767;-60
2022/09/02 09:22:49;;;;;;;12.52;7.20;;;;;;;25.05;nan;-24511.66;4948314;29;20217;-58
2022/09/02 09:25:16;;;;;;;12.68;7.82;;;;;;;25.23;nan;-24516.47;4952300;28;20551;-61
2022/09/02 09:27:45;;;;;;;28.15;12.48;;;;;;;25.47;nan;-24522.94;4954689;28;20713;-60
2022/09/02 09:30:12;;;;;;;18.38;8.98;;;;;;;25.21;nan;-24515.91;4954340;28;20182;-60
2022/09/02 09:32:53;;;;;;;13.32;7.60;;;;;;;25.04;nan;-24511.25;4954859;28;20628;-59
2022/09/02 09:35:20;;;;;;;11.93;7.47;;;;;;;25.14;nan;-24514.00;4953174;29;20181;-60
2022/09/02 09:37:48;;;;;;;13.77;7.25;;;;;;;24.86;nan;-24506.28;4956146;28;20186;-60
2022/09/02 09:40:27;;;;;;;14.05;8.18;;;;;;;24.11;nan;-24486.00;4956808;28;20233;-60
2022/09/02 09:43:04;;;;;;;15.48;7.53;;;;;;;24.86;nan;-24506.41;4955130;28;20186;-60
2022/09/02 09:45:43;;;;;;;14.27;8.05;;;;;;;24.82;nan;-24505.31;4955693;29;20640;-59
2022/09/02 09:48:32;;;;;;;13.50;7.97;;;;;;;24.60;nan;-24499.38;4948059;29;20178;-58
2022/09/02 09:50:57;;;;;;;15.95;7.63;;;;;;;24.40;nan;-24493.88;4954099;29;20186;-59
2022/09/02 09:53:24;;;;;;;13.85;7.60;;;;;;;24.25;nan;-24489.59;4954753;28;20181;-59
2022/09/02 09:55:57;;;;;;;13.55;7.82;;;;;;;24.30;nan;-24491.13;4954641;28;20244;-60
2022/09/02 09:58:31;;;;;;;13.07;7.50;;;;;;;24.01;nan;-24483.13;4954772;29;20616;-61
2022/09/02 10:00:59;;;;;;;14.02;7.20;;;;;;;23.96;nan;-24481.72;4955253;29;20707;-59
2022/09/02 10:03:29;;;;;;;12.50;6.95;;;;;;;23.70;nan;-24474.84;4955106;28;20253;-58
2022/09/02 10:05:57;;;;;;;8.45;5.57;;;;;;;24.31;nan;-24491.41;4954601;28;20186;-58
2022/09/02 10:08:25;;;;;;;8.35;5.20;;;;;;;23.81;nan;-24477.75;4954808;28;20186;-58
2022/09/02 10:10:57;;;;;;;7.13;5.28;;;;;;;23.77;nan;-24476.63;4956461;28;20212;-57
2022/09/02 10:13:25;;;;;;;9.10;4.72;;;;;;;24.04;nan;-24484.09;4955091;28;20268;-58
2022/09/02 10:15:57;;;;;;;7.95;4.57;;;;;;;24.25;nan;-24489.75;4954154;28;20190;-58
2022/09/02 10:18:33;;;;;;;7.18;4.35;;;;;;;24.08;nan;-24485.06;4953331;29;20190;-58
2022/09/02 10:21:19;;;;;;;7.60;4.82;;;;;;;24.38;nan;-24493.31;4954758;28;20225;-59
2022/09/02 10:24:07;;;;;;;8.00;4.43;;;;;;;23.95;nan;-24481.59;4952536;29;20217;-59
2022/09/02 10:26:43;;;;;;;10.20;5.40;;;;;;;24.18;nan;-24487.94;4955742;29;20649;-59
2022/09/02 10:29:32;;;;;;;7.13;4.22;;;;;;;24.24;nan;-24489.47;4954995;29;20174;-61
2022/09/02 10:32:13;;;;;;;9.80;4.30;;;;;;;24.08;nan;-24485.06;4954511;29;20194;-57
2022/09/02 10:35:04;;;;;;;9.45;4.75;;;;;;;23.87;nan;-24479.25;4955922;29;20684;-58
2022/09/02 10:38:18;;;;;;;5.97;3.88;;;;;;;24.12;nan;-24486.28;4954520;28;20196;-59
2022/09/02 10:40:49;;;;;;;7.25;4.70;;;;;;;23.74;nan;-24475.94;4954130;29;20221;-59
2022/09/02 10:43:27;;;;;;;5.82;3.88;;;;;;;23.99;nan;-24482.56;4954778;28;20248;-60
2022/09/02 10:45:58;;;;;;;6.07;4.03;;;;;;;23.52;nan;-24469.88;4955659;28;20189;-58
2022/09/02 10:48:32;;;;;;;6.03;4.00;;;;;;;24.21;nan;-24488.63;4936621;29;20604;-60
2022/09/02 10:51:18;;;;;;;7.88;4.28;;;;;;;24.20;nan;-24488.38;4942761;29;20562;-60
2022/09/02 10:54:21;;;;;;;6.05;4.20;;;;;;;24.37;nan;-24492.91;4954728;28;20197;-61
2022/09/02 10:56:55;;;;;;;6.00;3.63;;;;;;;24.26;nan;-24490.03;4954481;28;20204;-61
2022/09/02 10:59:27;;;;;;;5.97;4.03;;;;;;;24.29;nan;-24490.84;4952689;29;20197;-61
2022/09/02 11:02:06;;;;;;;7.30;3.80;;;;;;;24.64;nan;-24500.50;4955945;28;20249;-61
2022/09/02 11:04:38;;;;;;;6.93;3.83;;;;;;;24.63;nan;-24500.06;4936194;29;20175;-59
2022/09/02 11:07:13;;;;;;;4.97;3.72;;;;;;;24.56;nan;-24498.28;4953595;28;20197;-58
2022/09/02 11:09:59;;;;;;;5.45;3.50;;;;;;;24.48;nan;-24496.09;4951014;29;20194;-58
2022/09/02 11:12:27;;;;;;;5.70;3.80;;;;;;;24.95;nan;-24508.75;4948960;29;20181;-60
2022/09/02 11:15:16;;;;;;;6.80;4.32;;;;;;;24.80;nan;-24504.63;4953580;28;20182;-60
2022/09/02 11:18:01;;;;;;;4.78;3.53;;;;;;;24.83;nan;-24505.44;4950935;29;20268;-58
2022/09/02 11:20:48;;;;;;;4.85;3.13;;;;;;;24.53;nan;-24497.47;4953262;29;20255;-61
2022/09/02 11:23:32;;;;;;;6.93;4.07;;;;;;;24.41;nan;-24494.16;4953950;29;20198;-60
2022/09/02 11:26:10;;;;;;;11.35;4.85;;;;;;;24.41;nan;-24494.00;4954646;28;20200;-60
2022/09/02 11:28:38;;;;;;;6.22;4.00;;;;;;;24.49;nan;-24496.34;4953341;29;20237;-60
2022/09/02 11:31:24;;;;;;;6.97;4.68;;;;;;;24.41;nan;-24494.00;4954394;29;20622;-58
2022/09/02 11:34:04;;;;;;;6.65;4.10;;;;;;;24.47;nan;-24495.81;4954774;29;20214;-60
2022/09/02 11:36:30;;;;;;;8.27;4.07;;;;;;;24.57;nan;-24498.41;4954718;28;20645;-61
2022/09/02 11:39:03;;;;;;;8.35;4.57;;;;;;;24.77;nan;-24503.78;4954435;29;20181;-58
2022/09/02 11:41:58;;;;;;;11.25;5.78;;;;;;;24.82;nan;-24505.31;4954321;28;20670;-58
2022/09/02 11:44:50;;;;;;;8.90;5.38;;;;;;;24.77;nan;-24503.78;4954324;28;20566;-58
2022/09/02 11:47:25;;;;;;;9.27;5.82;;;;;;;24.72;nan;-24502.56;4953725;29;20256;-58
2022/09/02 11:49:59;;;;;;;11.43;5.97;;;;;;;24.73;nan;-24502.69;4953405;28;20189;-59